createdAt,value
2022-08-28T00:02:08.792Z,53.60
2022-08-28T00:04:38.412Z,53.60
2022-08-28T00:07:06.590Z,53.70
2022-08-28T00:09:34.677Z,53.70
2022-08-28T00:12:02.788Z,53.70
2022-08-28T00:14:30.903Z,53.70
2022-08-28T00:16:58.991Z,53.80
2022-08-28T00:19:27.339Z,53.70
2022-08-28T00:21:56.854Z,53.80
2022-08-28T00:24:24.984Z,53.80
2022-08-28T00:27:10.692Z,53.80
2022-08-28T00:29:38.806Z,53.80
2022-08-28T00:32:08.847Z,53.70
2022-08-28T00:34:36.990Z,53.70
2022-08-28T00:37:06.554Z,53.70
2022-08-28T00:39:34.735Z,53.60
2022-08-28T00:42:03.278Z,53.60
2022-08-28T00:44:31.419Z,53.60
2022-08-28T00:47:00.054Z,53.50
2022-08-28T00:49:30.467Z,53.60
2022-08-28T00:52:11.799Z,53.50
2022-08-28T00:54:59.296Z,53.40
2022-08-28T00:57:29.649Z,53.50
2022-08-28T00:59:57.752Z,53.30
2022-08-28T01:02:27.569Z,53.50
2022-08-28T01:04:56.005Z,53.30
2022-08-28T01:07:24.123Z,53.20
2022-08-28T01:09:54.420Z,53.20
2022-08-28T01:12:23.751Z,53.20
2022-08-28T01:14:52.418Z,53.30
2022-08-28T01:17:21.067Z,53.30
2022-08-28T01:19:56.412Z,53.30
2022-08-28T01:22:27.877Z,53.30
2022-08-28T01:25:02.221Z,53.20
2022-08-28T01:27:30.324Z,53.00
2022-08-28T01:29:58.691Z,54.00
2022-08-28T01:32:32.062Z,52.90
2022-08-28T01:35:00.382Z,52.90
2022-08-28T01:37:28.528Z,52.90
2022-08-28T01:39:56.635Z,52.80
2022-08-28T01:42:26.226Z,52.80
2022-08-28T01:44:54.945Z,52.90
2022-08-28T01:47:23.067Z,52.80
2022-08-28T01:49:51.657Z,52.90
2022-08-28T01:52:19.768Z,52.80
2022-08-28T01:54:54.522Z,52.90
2022-08-28T01:57:25.599Z,52.70
2022-08-28T01:59:54.475Z,52.80
2022-08-28T02:02:22.736Z,52.60
2022-08-28T02:04:50.887Z,52.70
2022-08-28T02:07:19.094Z,52.60
2022-08-28T02:09:47.181Z,52.70
2022-08-28T02:12:15.668Z,52.70
2022-08-28T02:14:45.134Z,52.60
2022-08-28T02:17:13.254Z,52.60
2022-08-28T02:19:41.542Z,52.70
2022-08-28T02:22:09.679Z,52.70
2022-08-28T02:24:37.777Z,52.70
2022-08-28T02:27:06.381Z,52.70
2022-08-28T02:29:34.546Z,52.70
2022-08-28T02:32:06.018Z,52.60
2022-08-28T02:34:34.440Z,52.70
2022-08-28T02:37:02.567Z,52.80
2022-08-28T02:39:30.680Z,52.80
2022-08-28T02:41:58.814Z,52.80
2022-08-28T02:44:26.992Z,52.80
2022-08-28T02:46:55.261Z,52.70
2022-08-28T02:49:25.875Z,52.70
2022-08-28T02:51:59.728Z,52.70
2022-08-28T02:54:27.841Z,52.70
2022-08-28T02:56:56.011Z,52.80
2022-08-28T02:59:24.137Z,52.80
2022-08-28T03:01:52.341Z,52.70
2022-08-28T03:04:20.503Z,52.70
2022-08-28T03:06:50.556Z,52.50
2022-08-28T03:09:18.652Z,52.80
2022-08-28T03:11:46.770Z,52.90
2022-08-28T03:14:15.002Z,52.80
2022-08-28T03:16:43.165Z,52.90
2022-08-28T03:19:11.331Z,52.90
2022-08-28T03:21:39.895Z,52.90
2022-08-28T03:24:09.488Z,52.90
2022-08-28T03:26:37.643Z,52.90
2022-08-28T03:29:05.773Z,53.00
2022-08-28T03:31:35.853Z,52.80
2022-08-28T03:34:04.720Z,52.70
2022-08-28T03:36:32.847Z,52.70
2022-08-28T03:39:02.121Z,52.80
2022-08-28T03:41:31.895Z,53.00
2022-08-28T03:44:00.602Z,52.90
2022-08-28T03:46:29.701Z,53.90
2022-08-28T03:48:57.868Z,53.00
2022-08-28T03:51:29.520Z,52.90
2022-08-28T03:53:58.147Z,52.90
2022-08-28T03:56:27.164Z,53.00
2022-08-28T03:58:58.476Z,52.90
2022-08-28T04:01:26.762Z,53.10
2022-08-28T04:03:54.974Z,53.00
2022-08-28T04:06:23.200Z,53.00
2022-08-28T04:08:51.879Z,53.00
2022-08-28T04:11:20.009Z,52.90
2022-08-28T04:13:48.173Z,53.00
2022-08-28T04:16:19.541Z,53.00
2022-08-28T04:18:48.568Z,52.90
2022-08-28T04:21:18.672Z,53.10
2022-08-28T04:23:47.137Z,53.00
2022-08-28T04:26:16.476Z,52.90
2022-08-28T04:28:44.840Z,53.00
2022-08-28T04:31:12.995Z,52.90
2022-08-28T04:33:42.509Z,53.00
2022-08-28T04:36:12.595Z,52.90
2022-08-28T04:38:43.966Z,52.90
2022-08-28T04:41:14.049Z,53.00
2022-08-28T04:43:42.234Z,52.90
2022-08-28T04:46:11.437Z,52.80
2022-08-28T04:48:39.680Z,53.00
2022-08-28T04:51:10.431Z,52.90
2022-08-28T04:53:38.642Z,52.90
2022-08-28T04:56:08.710Z,52.90
2022-08-28T04:58:37.088Z,52.80
2022-08-28T05:01:06.736Z,52.90
2022-08-28T05:03:35.325Z,52.90
2022-08-28T05:06:04.645Z,52.90
2022-08-28T05:08:34.196Z,53.00
2022-08-28T05:11:11.450Z,53.10
2022-08-28T05:13:39.674Z,53.10
2022-08-28T05:16:08.124Z,53.10
2022-08-28T05:18:36.366Z,53.20
2022-08-28T05:21:04.618Z,53.20
2022-08-28T05:23:34.149Z,53.20
2022-08-28T05:26:02.284Z,53.10
2022-08-28T05:28:30.456Z,53.20
2022-08-28T05:30:58.573Z,53.30
2022-08-28T05:33:26.862Z,53.30
2022-08-28T05:35:54.994Z,53.20
2022-08-28T05:38:23.751Z,53.30
2022-08-28T05:40:53.269Z,53.40
2022-08-28T05:43:21.546Z,53.40
2022-08-28T05:46:00.045Z,53.50
2022-08-28T05:48:32.863Z,53.60
2022-08-28T05:51:06.123Z,53.70
2022-08-28T05:53:35.641Z,53.80
2022-08-28T05:56:06.246Z,53.90
2022-08-28T05:58:34.985Z,54.10
2022-08-28T06:01:08.012Z,54.00
2022-08-28T06:03:36.455Z,54.00
2022-08-28T06:06:04.789Z,54.10
2022-08-28T06:08:32.924Z,54.20
2022-08-28T06:11:02.243Z,54.30
2022-08-28T06:13:32.649Z,54.10
2022-08-28T06:16:02.572Z,54.10
2022-08-28T06:18:30.797Z,54.10
2022-08-28T06:21:02.448Z,54.20
2022-08-28T06:23:30.935Z,54.20
2022-08-28T06:25:59.050Z,54.10
2022-08-28T06:28:28.129Z,54.10
2022-08-28T06:31:18.587Z,54.00
2022-08-28T06:33:46.592Z,54.20
2022-08-28T06:36:14.855Z,54.30
2022-08-28T06:38:46.554Z,54.30
2022-08-28T06:41:15.608Z,54.30
2022-08-28T06:43:43.876Z,54.30
2022-08-28T06:46:13.475Z,54.10
2022-08-28T06:48:41.643Z,54.30
2022-08-28T06:51:10.481Z,54.10
2022-08-28T06:53:39.887Z,54.20
2022-08-28T06:56:09.561Z,53.90
2022-08-28T06:58:38.552Z,53.80
2022-08-28T07:01:08.532Z,53.80
2022-08-28T07:03:38.184Z,54.10
2022-08-28T07:06:12.605Z,54.20
2022-08-28T07:08:41.116Z,54.40
2022-08-28T07:11:13.918Z,54.50
2022-08-28T07:13:42.255Z,54.70
2022-08-28T07:16:10.727Z,54.70
2022-08-28T07:18:40.302Z,54.60
2022-08-28T07:21:12.301Z,54.70
2022-08-28T07:23:41.185Z,54.80
2022-08-28T07:26:10.785Z,54.80
2022-08-28T07:28:38.909Z,54.90
2022-08-28T07:31:09.817Z,55.40
2022-08-28T07:33:39.991Z,55.90
2022-08-28T07:36:08.563Z,55.70
2022-08-28T07:38:44.364Z,56.00
2022-08-28T07:41:16.510Z,56.10
2022-08-28T07:44:02.053Z,56.50
2022-08-28T07:46:30.395Z,56.60
2022-08-28T07:49:00.008Z,56.60
2022-08-28T07:51:28.637Z,56.70
2022-08-28T07:53:57.280Z,56.70
2022-08-28T07:56:25.612Z,56.50
2022-08-28T07:58:53.745Z,56.30
2022-08-28T08:01:21.943Z,56.80
2022-08-28T08:03:50.270Z,56.40
2022-08-28T08:06:28.884Z,56.20
2022-08-28T08:09:02.253Z,56.20
2022-08-28T08:11:32.567Z,56.20
2022-08-28T08:14:04.890Z,55.80
2022-08-28T08:16:34.613Z,55.20
2022-08-28T08:19:03.991Z,54.60
2022-08-28T08:21:33.645Z,54.00
2022-08-28T08:24:02.079Z,53.50
2022-08-28T08:26:30.186Z,53.40
2022-08-28T08:28:58.886Z,53.10
2022-08-28T08:31:28.376Z,52.80
2022-08-28T08:33:57.693Z,52.80
2022-08-28T08:36:26.760Z,52.60
2022-08-28T08:38:59.396Z,52.50
2022-08-28T08:41:30.298Z,52.40
2022-08-28T08:44:01.390Z,52.50
2022-08-28T08:46:33.677Z,52.60
2022-08-28T08:49:03.793Z,52.60
2022-08-28T08:51:43.597Z,52.60
2022-08-28T08:54:14.070Z,52.50
2022-08-28T08:56:42.718Z,52.40
2022-08-28T08:59:14.272Z,52.00
2022-08-28T09:01:45.679Z,51.70
2022-08-28T09:04:23.601Z,51.60
2022-08-28T09:06:52.638Z,51.50
2022-08-28T09:09:29.728Z,51.40
2022-08-28T09:12:00.261Z,51.10
2022-08-28T09:14:34.785Z,51.30
2022-08-28T09:17:03.152Z,51.50
2022-08-28T09:19:31.416Z,51.60
2022-08-28T09:21:59.568Z,52.00
2022-08-28T09:24:31.906Z,52.00
2022-08-28T09:27:01.108Z,52.30
2022-08-28T09:29:32.020Z,52.50
2022-08-28T09:32:00.166Z,52.70
2022-08-28T09:34:33.401Z,52.80
2022-08-28T09:37:04.505Z,52.90
2022-08-28T09:39:35.680Z,53.10
2022-08-28T09:42:25.410Z,54.10
2022-08-28T09:44:59.701Z,53.20
2022-08-28T09:47:49.083Z,53.30
2022-08-28T09:50:34.782Z,53.30
2022-08-28T09:53:17.672Z,53.20
2022-08-28T09:55:56.594Z,53.20
2022-08-28T09:58:27.108Z,53.20
2022-08-28T10:00:58.109Z,53.30
2022-08-28T10:03:28.180Z,53.40
2022-08-28T10:06:01.747Z,53.30
2022-08-28T10:08:40.153Z,53.60
2022-08-28T10:11:13.320Z,53.70
2022-08-28T10:13:43.921Z,53.80
2022-08-28T10:16:18.512Z,53.90
2022-08-28T10:18:49.728Z,54.00
2022-08-28T10:21:21.612Z,54.20
2022-08-28T10:24:07.977Z,54.00
2022-08-28T10:26:40.877Z,53.80
2022-08-28T10:29:21.341Z,53.60
2022-08-28T10:31:52.322Z,53.70
2022-08-28T10:34:30.805Z,53.80
2022-08-28T10:37:04.788Z,53.60
2022-08-28T10:39:40.071Z,53.10
2022-08-28T10:42:09.584Z,52.40
2022-08-28T10:44:41.851Z,52.30
2022-08-28T10:47:09.982Z,52.30
2022-08-28T10:49:39.180Z,51.90
2022-08-28T10:52:09.856Z,51.90
2022-08-28T10:54:41.110Z,52.00
2022-08-28T10:57:16.169Z,52.30
2022-08-28T10:59:44.415Z,52.50
2022-08-28T11:02:12.694Z,52.70
2022-08-28T11:04:40.947Z,52.60
2022-08-28T11:07:10.282Z,52.50
2022-08-28T11:09:39.797Z,52.90
2022-08-28T11:12:20.774Z,52.80
2022-08-28T11:14:49.567Z,52.80
2022-08-28T11:17:35.335Z,52.90
2022-08-28T11:20:15.334Z,52.60
2022-08-28T11:22:45.793Z,52.50
2022-08-28T11:25:16.381Z,52.30
2022-08-28T11:28:14.722Z,52.30
2022-08-28T11:30:45.710Z,52.30
2022-08-28T11:33:36.039Z,51.70
2022-08-28T11:36:04.432Z,51.30
2022-08-28T11:39:02.275Z,51.30
2022-08-28T11:41:31.231Z,51.50
2022-08-28T11:44:27.841Z,51.50
2022-08-28T11:46:58.936Z,51.10
2022-08-28T11:49:41.981Z,50.80
2022-08-28T11:52:34.066Z,50.50
2022-08-28T11:55:13.182Z,50.70
2022-08-28T11:57:49.845Z,51.30
2022-08-28T12:00:23.630Z,51.70
2022-08-28T12:03:10.485Z,51.80
2022-08-28T12:05:49.780Z,51.60
2022-08-28T12:09:10.107Z,50.90
2022-08-28T12:12:05.718Z,50.50
2022-08-28T12:15:08.926Z,50.30
2022-08-28T12:17:52.443Z,50.20
2022-08-28T12:20:36.366Z,50.20
2022-08-28T12:23:05.729Z,50.20
2022-08-28T12:25:36.333Z,50.30
2022-08-28T12:28:08.192Z,50.70
2022-08-28T12:30:43.688Z,51.30
2022-08-28T12:33:15.118Z,51.50
2022-08-28T12:35:43.985Z,51.70
2022-08-28T12:38:12.243Z,52.00
2022-08-28T12:40:50.313Z,52.50
2022-08-28T12:43:31.070Z,53.00
2022-08-28T12:46:00.221Z,53.40
2022-08-28T12:48:31.558Z,53.60
2022-08-28T12:51:03.050Z,53.80
2022-08-28T12:53:38.735Z,53.90
2022-08-28T12:56:06.931Z,54.00
2022-08-28T12:58:35.979Z,54.20
2022-08-28T13:01:05.244Z,54.50
2022-08-28T13:03:34.814Z,54.50
2022-08-28T13:06:05.938Z,54.80
2022-08-28T13:08:34.154Z,54.90
2022-08-28T13:11:02.264Z,54.90
2022-08-28T13:13:34.741Z,55.00
2022-08-28T13:16:03.382Z,55.10
2022-08-28T13:18:44.635Z,55.20
2022-08-28T13:21:34.987Z,55.20
2022-08-28T13:24:26.295Z,55.20
2022-08-28T13:27:01.789Z,55.30
2022-08-28T13:29:30.093Z,55.30
2022-08-28T13:31:59.756Z,55.30
2022-08-28T13:34:29.810Z,55.50
2022-08-28T13:36:59.802Z,55.40
2022-08-28T13:39:28.700Z,55.00
2022-08-28T13:41:58.016Z,54.90
2022-08-28T13:44:34.151Z,54.90
2022-08-28T13:47:02.707Z,54.70
2022-08-28T13:49:32.214Z,54.80
2022-08-28T13:52:00.965Z,54.50
2022-08-28T13:54:30.082Z,54.40
2022-08-28T13:57:01.005Z,54.50
2022-08-28T13:59:29.321Z,54.30
2022-08-28T14:02:16.428Z,54.40
2022-08-28T14:04:45.929Z,54.30
2022-08-28T14:07:14.086Z,54.30
2022-08-28T14:09:42.542Z,54.20
2022-08-28T14:12:10.829Z,54.20
2022-08-28T14:14:39.251Z,54.40
2022-08-28T14:17:07.563Z,54.10
2022-08-28T14:19:36.186Z,54.20
2022-08-28T14:22:05.737Z,54.10
2022-08-28T14:24:34.419Z,54.00
2022-08-28T14:27:02.682Z,53.90
2022-08-28T14:29:31.433Z,53.80
2022-08-28T14:32:01.784Z,53.60
2022-08-28T14:34:29.975Z,53.70
2022-08-28T14:36:58.079Z,53.70
2022-08-28T14:39:27.906Z,53.50
2022-08-28T14:41:56.024Z,53.50
2022-08-28T14:44:30.431Z,53.40
2022-08-28T14:47:01.840Z,53.60
2022-08-28T14:49:30.029Z,53.60
2022-08-28T14:51:58.225Z,53.60
2022-08-28T14:54:27.715Z,53.80
2022-08-28T14:56:55.946Z,53.90
2022-08-28T14:59:25.487Z,54.00
2022-08-28T15:01:55.165Z,53.90
2022-08-28T15:04:24.068Z,54.00
2022-08-28T15:06:52.401Z,54.10
2022-08-28T15:09:20.758Z,54.00
2022-08-28T15:11:50.280Z,53.70
2022-08-28T15:14:18.442Z,53.80
2022-08-28T15:16:47.696Z,53.90
2022-08-28T15:19:17.849Z,54.00
2022-08-28T15:21:46.962Z,53.90
2022-08-28T15:24:15.592Z,53.80
2022-08-28T15:26:43.826Z,53.40
2022-08-28T15:29:13.753Z,53.00
2022-08-28T15:31:42.678Z,53.00
2022-08-28T15:34:13.709Z,53.20
2022-08-28T15:36:41.990Z,53.40
2022-08-28T15:39:27.860Z,53.70
2022-08-28T15:41:56.265Z,53.70
2022-08-28T15:44:25.968Z,53.60
2022-08-28T15:46:55.199Z,53.70
2022-08-28T15:49:24.099Z,53.90
2022-08-28T15:51:52.608Z,53.90
2022-08-28T15:54:20.849Z,54.00
2022-08-28T15:56:50.688Z,54.20
2022-08-28T15:59:20.880Z,54.30
2022-08-28T16:01:50.391Z,54.50
2022-08-28T16:04:18.841Z,54.50
2022-08-28T16:06:47.059Z,54.70
2022-08-28T16:09:15.179Z,54.80
2022-08-28T16:11:43.983Z,54.80
2022-08-28T16:14:12.305Z,55.10
2022-08-28T16:16:40.454Z,55.10
2022-08-28T16:19:16.107Z,55.40
2022-08-28T16:21:44.506Z,55.60
2022-08-28T16:24:12.709Z,55.80
2022-08-28T16:26:40.943Z,56.10
2022-08-28T16:29:09.119Z,56.20
2022-08-28T16:31:38.018Z,56.30
2022-08-28T16:34:08.255Z,56.70
2022-08-28T16:36:42.590Z,56.80
2022-08-28T16:39:11.722Z,57.20
2022-08-28T16:41:40.945Z,57.50
2022-08-28T16:44:09.154Z,58.00
2022-08-28T16:46:39.461Z,58.40
2022-08-28T16:49:07.619Z,58.50
2022-08-28T16:51:35.782Z,58.90
2022-08-28T16:54:05.684Z,59.40
2022-08-28T16:56:34.136Z,59.70
2022-08-28T16:59:02.268Z,60.10
2022-08-28T17:01:35.177Z,59.90
2022-08-28T17:04:04.696Z,60.30
2022-08-28T17:06:33.240Z,60.30
2022-08-28T17:09:01.919Z,60.60
2022-08-28T17:11:33.845Z,60.60
2022-08-28T17:14:02.063Z,60.90
2022-08-28T17:16:31.585Z,61.40
2022-08-28T17:19:00.408Z,61.60
2022-08-28T17:21:46.197Z,61.70
2022-08-28T17:24:14.531Z,62.00
2022-08-28T17:26:44.521Z,62.10
2022-08-28T17:29:12.692Z,62.00
2022-08-28T17:31:41.166Z,62.20
2022-08-28T17:34:10.484Z,62.30
2022-08-28T17:36:40.415Z,62.10
2022-08-28T17:39:10.480Z,62.20
2022-08-28T17:41:39.302Z,62.10
2022-08-28T17:44:08.946Z,62.20
2022-08-28T17:46:38.258Z,61.90
2022-08-28T17:49:07.025Z,61.70
2022-08-28T17:51:43.244Z,59.70
2022-08-28T17:54:13.099Z,60.50
2022-08-28T17:56:41.394Z,59.10
2022-08-28T17:59:11.204Z,59.40
2022-08-28T18:01:39.537Z,59.40
2022-08-28T18:04:07.820Z,58.90
2022-08-28T18:06:36.248Z,58.40
2022-08-28T18:09:04.429Z,58.30
2022-08-28T18:11:32.623Z,58.40
2022-08-28T18:14:00.850Z,58.20
2022-08-28T18:16:31.931Z,58.00
2022-08-28T18:19:00.277Z,57.70
2022-08-28T18:21:29.994Z,57.80
2022-08-28T18:23:58.148Z,58.00
2022-08-28T18:26:26.307Z,58.00
2022-08-28T18:28:54.455Z,57.90
2022-08-28T18:31:23.369Z,57.90
2022-08-28T18:33:54.269Z,58.00
2022-08-28T18:36:23.160Z,57.80
2022-08-28T18:38:51.402Z,57.90
2022-08-28T18:41:20.422Z,57.70
2022-08-28T18:43:49.803Z,57.50
2022-08-28T18:46:18.179Z,57.40
2022-08-28T18:48:47.253Z,57.60
2022-08-28T18:51:16.837Z,57.40
2022-08-28T18:53:49.987Z,57.80
2022-08-28T18:56:19.224Z,59.50
2022-08-28T18:58:49.193Z,58.90
2022-08-28T19:01:17.540Z,59.10
2022-08-28T19:03:45.877Z,59.20
2022-08-28T19:06:16.309Z,59.20
2022-08-28T19:08:46.054Z,59.20
2022-08-28T19:11:14.884Z,59.30
2022-08-28T19:13:43.701Z,59.50
2022-08-28T19:16:12.827Z,59.40
2022-08-28T19:18:41.152Z,59.50
2022-08-28T19:21:12.204Z,59.40
2022-08-28T19:23:55.573Z,59.30
2022-08-28T19:26:24.849Z,59.20
2022-08-28T19:28:53.147Z,59.30
2022-08-28T19:31:21.401Z,59.40
2022-08-28T19:33:49.754Z,59.20
2022-08-28T19:36:18.710Z,59.10
2022-08-28T19:38:48.226Z,59.10
2022-08-28T19:41:16.749Z,59.10
2022-08-28T19:43:45.288Z,59.10
2022-08-28T19:46:20.023Z,59.10
2022-08-28T19:48:49.127Z,60.20
2022-08-28T19:51:23.368Z,59.20
2022-08-28T19:53:57.691Z,57.80
2022-08-28T19:56:27.988Z,56.10
2022-08-28T19:58:57.447Z,54.50
2022-08-28T20:01:25.824Z,53.10
2022-08-28T20:03:54.154Z,52.70
2022-08-28T20:06:22.382Z,51.90
2022-08-28T20:08:50.513Z,51.70
2022-08-28T20:11:24.786Z,51.70
2022-08-28T20:13:53.163Z,52.10
2022-08-28T20:16:21.480Z,52.00
2022-08-28T20:18:50.974Z,52.50
2022-08-28T20:21:25.876Z,52.60
2022-08-28T20:24:05.484Z,52.50
2022-08-28T20:26:34.971Z,52.50
2022-08-28T20:29:03.255Z,52.70
2022-08-28T20:31:31.511Z,52.80
2022-08-28T20:33:59.635Z,52.50
2022-08-28T20:36:27.973Z,52.50
2022-08-28T20:38:56.100Z,52.40
2022-08-28T20:41:24.235Z,52.40
2022-08-28T20:43:53.934Z,52.10
2022-08-28T20:46:22.218Z,52.50
2022-08-28T20:48:50.506Z,53.00
2022-08-28T20:51:38.646Z,53.60
2022-08-28T20:54:06.858Z,53.60
2022-08-28T20:56:34.985Z,53.60
2022-08-28T20:59:05.152Z,53.80
2022-08-28T21:01:33.729Z,53.60
2022-08-28T21:04:02.050Z,53.60
2022-08-28T21:06:31.057Z,53.60
2022-08-28T21:08:59.340Z,53.30
2022-08-28T21:11:27.722Z,54.20
2022-08-28T21:13:55.911Z,54.80
2022-08-28T21:16:25.506Z,55.10
2022-08-28T21:19:14.610Z,55.30
2022-08-28T21:21:42.103Z,55.60
2022-08-28T21:24:11.820Z,55.50
2022-08-28T21:26:42.579Z,55.70
2022-08-28T21:29:10.983Z,56.00
2022-08-28T21:31:40.816Z,55.60
2022-08-28T21:34:09.969Z,55.80
2022-08-28T21:36:38.291Z,55.80
2022-08-28T21:39:07.138Z,55.60
2022-08-28T21:41:35.267Z,55.50
2022-08-28T21:44:03.545Z,55.50
2022-08-28T21:46:31.778Z,55.20
2022-08-28T21:49:01.435Z,55.40
2022-08-28T21:51:29.538Z,56.80
2022-08-28T21:53:57.913Z,55.10
2022-08-28T21:56:27.101Z,55.30
2022-08-28T21:58:55.603Z,55.40
2022-08-28T22:01:24.597Z,55.10
2022-08-28T22:03:52.850Z,55.20
2022-08-28T22:06:22.865Z,55.10
2022-08-28T22:08:51.253Z,55.10
2022-08-28T22:11:24.801Z,55.20
2022-08-28T22:13:53.247Z,55.30
2022-08-28T22:16:21.558Z,55.10
2022-08-28T22:18:49.915Z,55.20
2022-08-28T22:21:36.813Z,55.00
2022-08-28T22:24:06.629Z,55.10
2022-08-28T22:26:34.834Z,55.00
2022-08-28T22:29:03.006Z,54.90
2022-08-28T22:31:31.157Z,55.00
2022-08-28T22:33:59.387Z,55.20
2022-08-28T22:36:29.225Z,54.80
2022-08-28T22:38:58.451Z,54.70
2022-08-28T22:41:27.903Z,54.70
2022-08-28T22:43:56.072Z,54.70
2022-08-28T22:46:24.755Z,54.40
2022-08-28T22:48:52.909Z,54.50
2022-08-28T22:51:21.119Z,54.70
2022-08-28T22:53:49.315Z,54.70
2022-08-28T22:56:17.792Z,54.50
2022-08-28T22:58:47.265Z,54.40
2022-08-28T23:01:21.734Z,54.40
2022-08-28T23:03:49.975Z,54.50
2022-08-28T23:06:18.299Z,54.40
2022-08-28T23:08:46.495Z,54.30
2022-08-28T23:11:15.018Z,54.50
2022-08-28T23:13:43.191Z,54.50
2022-08-28T23:16:13.083Z,54.30
2022-08-28T23:19:06.766Z,54.30
2022-08-28T23:21:29.461Z,54.10
2022-08-28T23:23:58.499Z,54.30
2022-08-28T23:26:26.735Z,54.40
2022-08-28T23:28:54.848Z,54.30
2022-08-28T23:31:24.423Z,54.30
2022-08-28T23:33:52.543Z,54.30
2022-08-28T23:36:20.816Z,54.20
2022-08-28T23:38:48.962Z,54.30
2022-08-28T23:41:17.321Z,53.80
2022-08-28T23:43:45.416Z,54.20
2022-08-28T23:46:16.169Z,54.10
2022-08-28T23:48:45.879Z,54.10
2022-08-28T23:51:17.946Z,53.90
2022-08-28T23:53:46.446Z,53.90
2022-08-28T23:56:15.885Z,53.90
2022-08-28T23:58:45.064Z,53.90
